Aérodrome :
LOGIN :

S'inscrire | Disclaimer

   EN    FR    IT 

 










Légende :    VFR   VFR Marginal   IFR   IFR Intensif   IFR Très Intensif
Visi : 
Plafond : 
>= 8 km
>= 3000ft
5 à 8 km
1000 à 3000 ft
1500m à 5 km
500 à 1000 ft
800 à 1500m
200 à 500 ft
< 800m
< 200 ft
Symboles :   Orages  Brouillard  Fortes neiges  Fortes précipitations  Vent > 20 kt
SIGMETs :   Divers  Orages  Givrage  Turbulence  Onde Orograph.  Cendres Volcan.






- Altitude de l'aérodrome : 526 ft
- Code IATA : LTN


EGGW - London Luton

DERNIER METAR :
  • 161120Z AUTO 26010KT 9999 FEW019 SCT025 OVC031 17/14 Q1009

METARs EXPIRÉS :
  • 161050Z AUTO 26008KT 230V290 9999 SCT020 BKN030 OVC038 17/14 Q1008
  • 161020Z AUTO 25009KT 9999 FEW020 OVC027 18/14 Q1008
  • 160950Z 26011KT 9999 SCT015 BKN022 17/14 Q1008
  • 160920Z 26010KT 220V290 9999 BKN014 17/14 Q1007
  • 160850Z AUTO 23007KT 9999 BKN010 OVC016 16/14 Q1007
  • 160820Z 22007KT 9999 SCT009 BKN012 15/14 Q1007
  • 160750Z AUTO 24007KT 9999 BKN008 OVC012 14/13 Q1007
  • 160720Z AUTO 23009KT 9999 BKN007 OVC010 14/13 Q1007

TAF TAF EGGW
Valide du 16 à 12h jusqu'au 17 à 12h UTC


161100Z 1612/1712 24008KT 9999 SCT030
BECMG 1612/1614 30010KT
TEMPO 1612/1620 6000 SHRA
PROB30
TEMPO 1613/1619 4000 +SHRA
PROB30 1623/1705 6000
ATIS : +44 1582 395 204



MET'MAP, la Météo Aéronautique d'un coup d'oeil ! - Copyright ORBIFLY Décembre 2007 - Disclaimer

ORBIFLY MET'MAP TEAM :

Programmation & Développement : Alexandra Zaïnal
Sur une idée originale de : Baudouin d'Aumeries
Soutien technique & logistique : Manuel Goepfert
Assistance : Marc-Olivier Méhu




SOURCES & CREDITS :

   NOAA